Time;durP1;ratioP1;P1;durP2;ratioP2;P2;SDS_P1;SDS_P2;PMS_P1;PMS_P2;Temp;Humidity;BMP_temperature;BMP_pressure;BME280_temperature;BME280_humidity;BME280_pressure;Samples;Min_cycle;Max_cycle;Signal;HPM_P1;HPM_P2
2023/11/18 00:00:19;;;;;;;10.40;8.53;;;5.50;99.90;;;;;;4955118;28;20216;-68
2023/11/18 00:02:46;;;;;;;7.63;6.90;;;5.50;99.90;;;;;;4955629;28;20827;-68
2023/11/18 00:05:12;;;;;;;6.47;5.60;;;5.50;99.90;;;;;;4970573;28;20428;-68
2023/11/18 00:07:37;;;;;;;7.13;6.37;;;5.50;99.90;;;;;;4951061;28;20484;-68
2023/11/18 00:10:04;;;;;;;6.97;6.30;;;5.50;99.90;;;;;;4953554;28;20514;-69
2023/11/18 00:12:30;;;;;;;7.10;6.40;;;5.60;99.90;;;;;;4955335;28;20201;-68
2023/11/18 00:14:55;;;;;;;6.33;5.73;;;5.60;99.90;;;;;;4951161;29;20436;-68
2023/11/18 00:17:21;;;;;;;7.70;7.00;;;5.60;99.90;;;;;;4950346;29;20549;-68
2023/11/18 00:19:47;;;;;;;7.43;6.73;;;5.70;99.90;;;;;;4944164;29;20225;-68
2023/11/18 00:22:12;;;;;;;7.20;6.50;;;5.60;99.90;;;;;;4954309;29;20177;-68
2023/11/18 00:24:38;;;;;;;6.07;5.47;;;5.70;99.90;;;;;;4950805;29;20439;-68
2023/11/18 00:27:05;;;;;;;6.67;6.07;;;5.70;99.90;;;;;;4942531;29;20553;-68
2023/11/18 00:29:35;;;;;;;7.50;6.83;;;5.70;99.90;;;;;;4954353;29;20637;-68
2023/11/18 00:32:01;;;;;;;6.30;5.80;;;5.80;99.90;;;;;;4955008;28;20922;-68
2023/11/18 00:34:29;;;;;;;7.90;6.37;;;5.70;99.90;;;;;;4954823;28;20469;-68
2023/11/18 00:36:57;;;;;;;8.00;6.60;;;5.70;99.90;;;;;;4944013;28;20440;-68
2023/11/18 00:39:22;;;;;;;6.37;5.77;;;5.60;99.90;;;;;;4950244;28;20436;-68
2023/11/18 00:41:48;;;;;;;6.97;6.30;;;5.70;99.90;;;;;;4952574;28;20452;-68
2023/11/18 00:44:14;;;;;;;7.47;5.63;;;5.70;99.90;;;;;;4955031;28;20201;-68
2023/11/18 00:46:39;;;;;;;7.30;6.70;;;5.70;99.90;;;;;;4954486;29;20184;-68
2023/11/18 00:49:05;;;;;;;7.07;5.83;;;5.60;99.90;;;;;;4954840;29;20680;-68
2023/11/18 00:51:31;;;;;;;7.77;6.03;;;5.60;99.90;;;;;;4954111;29;20188;-68
2023/11/18 00:53:57;;;;;;;6.67;5.97;;;5.60;99.90;;;;;;4954821;29;20240;-68
2023/11/18 00:56:22;;;;;;;6.77;6.07;;;5.60;99.90;;;;;;4952562;29;20444;-68
2023/11/18 00:58:48;;;;;;;8.10;7.30;;;5.50;99.90;;;;;;4949595;29;20459;-68
2023/11/18 01:01:17;;;;;;;6.93;6.33;;;5.50;99.90;;;;;;4945773;29;20264;-68
2023/11/18 01:03:46;;;;;;;12.90;7.60;;;5.50;99.90;;;;;;4954366;29;20456;-69
2023/11/18 01:06:12;;;;;;;8.13;7.33;;;5.60;99.90;;;;;;4954457;29;20818;-68
2023/11/18 01:08:38;;;;;;;8.27;7.40;;;5.60;99.90;;;;;;4954267;28;20412;-68
2023/11/18 01:11:04;;;;;;;9.30;6.60;;;5.50;99.90;;;;;;4951741;29;20440;-68
2023/11/18 01:13:31;;;;;;;6.30;5.70;;;5.60;99.90;;;;;;4954335;28;20602;-68
2023/11/18 01:15:57;;;;;;;6.87;6.20;;;5.60;99.90;;;;;;4954320;28;20440;-68
2023/11/18 01:18:22;;;;;;;6.30;5.80;;;5.60;99.90;;;;;;4950218;28;20448;-68
2023/11/18 01:20:48;;;;;;;6.23;5.63;;;5.60;99.90;;;;;;4948513;29;20501;-68
2023/11/18 01:23:14;;;;;;;6.10;5.50;;;5.50;99.90;;;;;;4950210;29;20672;-69
2023/11/18 01:25:40;;;;;;;6.73;6.10;;;5.60;99.90;;;;;;4948057;28;20178;-68
2023/11/18 01:28:06;;;;;;;6.07;5.50;;;5.60;99.90;;;;;;4951409;29;20649;-68
2023/11/18 01:30:32;;;;;;;7.23;6.00;;;5.60;99.90;;;;;;4953960;28;20491;-68
2023/11/18 01:33:01;;;;;;;5.77;5.20;;;5.60;99.90;;;;;;4950321;28;21022;-68
2023/11/18 01:35:27;;;;;;;6.40;5.70;;;5.60;99.90;;;;;;4949815;28;20440;-68
2023/11/18 01:37:54;;;;;;;5.80;5.30;;;5.60;99.90;;;;;;4953770;28;20861;-68
2023/11/18 01:40:20;;;;;;;4.97;4.57;;;5.60;99.90;;;;;;4946311;28;20215;-68
2023/11/18 01:42:46;;;;;;;6.97;5.40;;;5.60;99.90;;;;;;4949756;29;20466;-68
2023/11/18 01:45:14;;;;;;;7.00;6.03;;;5.60;99.90;;;;;;4952656;29;20857;-68
2023/11/18 01:47:40;;;;;;;7.10;6.40;;;5.60;99.90;;;;;;4953765;28;20173;-68
2023/11/18 01:50:08;;;;;;;5.97;5.40;;;5.50;99.90;;;;;;4953241;28;20984;-68
2023/11/18 01:52:35;;;;;;;6.60;5.90;;;5.50;99.90;;;;;;4952296;28;20476;-68
2023/11/18 01:55:03;;;;;;;6.90;6.20;;;5.50;99.90;;;;;;4951239;29;20432;-68
2023/11/18 01:57:29;;;;;;;7.07;6.37;;;5.50;99.90;;;;;;4953592;28;20609;-68
2023/11/18 01:59:55;;;;;;;7.93;6.50;;;5.50;99.90;;;;;;4952763;29;21038;-68
2023/11/18 02:02:21;;;;;;;5.53;5.03;;;5.50;99.90;;;;;;4942076;29;20264;-68
2023/11/18 02:04:47;;;;;;;6.20;5.60;;;5.50;99.90;;;;;;4943713;29;20511;-68
2023/11/18 02:07:14;;;;;;;6.23;5.63;;;5.60;99.90;;;;;;4949234;28;20642;-68
2023/11/18 02:09:41;;;;;;;6.20;5.33;;;5.60;99.90;;;;;;4947492;28;20499;-68
2023/11/18 02:12:41;;;;;;;5.93;5.33;;;5.60;99.90;;;;;;4953717;28;20429;-68
2023/11/18 02:15:12;;;;;;;8.70;4.90;;;5.70;99.90;;;;;;4952725;29;20440;-68
2023/11/18 02:17:39;;;;;;;5.30;4.80;;;5.70;99.90;;;;;;4952792;28;21123;-68
2023/11/18 02:20:15;;;;;;;5.80;5.10;;;5.60;99.90;;;;;;4952723;29;20468;-68
2023/11/18 02:22:42;;;;;;;7.20;4.80;;;5.60;99.90;;;;;;4949594;28;20468;-68
2023/11/18 02:25:10;;;;;;;4.57;4.17;;;5.60;99.90;;;;;;4945846;29;20442;-68
2023/11/18 02:27:37;;;;;;;5.43;4.80;;;5.60;99.90;;;;;;4952534;28;20446;-68
2023/11/18 02:30:03;;;;;;;5.20;4.70;;;5.60;99.90;;;;;;4953339;28;20504;-68
2023/11/18 02:32:37;;;;;;;4.57;4.13;;;5.60;99.90;;;;;;4952526;28;20960;-68
2023/11/18 02:35:21;;;;;;;6.97;6.27;;;5.60;99.90;;;;;;4952570;28;20484;-68
2023/11/18 02:37:49;;;;;;;5.23;4.57;;;5.60;99.90;;;;;;4953162;28;20499;-68
2023/11/18 02:40:36;;;;;;;4.97;4.27;;;5.70;99.90;;;;;;4945761;29;20530;-68
2023/11/18 02:43:07;;;;;;;4.53;3.73;;;5.80;99.90;;;;;;4950646;28;20543;-68
2023/11/18 02:45:35;;;;;;;5.17;4.77;;;5.80;99.90;;;;;;4950565;28;20440;-68
2023/11/18 02:48:01;;;;;;;5.07;4.50;;;5.80;99.90;;;;;;4955381;28;20464;-68
2023/11/18 02:50:27;;;;;;;4.97;4.50;;;5.80;99.90;;;;;;4956183;28;20904;-68
2023/11/18 02:52:53;;;;;;;5.43;4.47;;;5.80;99.90;;;;;;4956872;28;20200;-68
2023/11/18 02:55:22;;;;;;;5.23;4.73;;;5.70;99.90;;;;;;4951367;28;20221;-68
2023/11/18 02:57:49;;;;;;;5.03;4.53;;;5.70;99.90;;;;;;4956596;28;20437;-68
2023/11/18 03:00:21;;;;;;;4.73;4.33;;;5.50;99.90;;;;;;4955984;28;20495;-68
2023/11/18 03:02:51;;;;;;;4.43;4.07;;;5.50;99.90;;;;;;4955959;28;20471;-68
2023/11/18 03:05:17;;;;;;;6.13;4.60;;;5.30;99.90;;;;;;4952513;29;20447;-68
2023/11/18 03:07:47;;;;;;;4.63;4.23;;;5.20;99.90;;;;;;4955818;28;20440;-68
2023/11/18 03:10:20;;;;;;;5.10;4.40;;;5.10;99.90;;;;;;4952957;28;20543;-68
2023/11/18 03:12:55;;;;;;;4.97;4.47;;;5.10;99.90;;;;;;4956515;29;20456;-68
2023/11/18 03:15:21;;;;;;;5.20;4.70;;;5.00;99.90;;;;;;4956324;29;20510;-68
2023/11/18 03:17:50;;;;;;;11.73;8.00;;;4.90;99.90;;;;;;4955637;28;20503;-68
2023/11/18 03:20:17;;;;;;;8.27;7.10;;;4.90;99.90;;;;;;4956256;29;20479;-68
2023/11/18 03:22:44;;;;;;;5.33;4.83;;;4.80;99.90;;;;;;4956490;28;20448;-68
2023/11/18 03:25:10;;;;;;;6.33;4.50;;;4.80;99.90;;;;;;4949076;28;20443;-68
2023/11/18 03:27:36;;;;;;;4.93;4.53;;;4.70;99.90;;;;;;4949694;28;20440;-68
2023/11/18 03:30:02;;;;;;;4.07;3.67;;;4.60;99.90;;;;;;4951486;29;20467;-68
2023/11/18 03:32:28;;;;;;;8.93;5.00;;;4.60;99.90;;;;;;4955245;28;20291;-68
2023/11/18 03:34:53;;;;;;;4.70;4.30;;;4.60;99.90;;;;;;4956082;29;20864;-68
2023/11/18 03:37:23;;;;;;;4.47;4.07;;;4.60;99.90;;;;;;4955980;29;20264;-68
2023/11/18 03:39:48;;;;;;;11.73;8.87;;;4.60;99.90;;;;;;4950222;29;20209;-68
2023/11/18 03:42:15;;;;;;;6.40;5.80;;;4.60;99.90;;;;;;4952621;29;20449;-68
2023/11/18 03:44:41;;;;;;;5.63;4.73;;;4.60;99.90;;;;;;4951858;28;20242;-68
2023/11/18 03:47:06;;;;;;;4.93;4.50;;;4.60;99.90;;;;;;4949506;29;20536;-68
2023/11/18 03:49:32;;;;;;;5.07;4.57;;;4.60;99.90;;;;;;4953100;28;20189;-68
2023/11/18 03:51:57;;;;;;;4.70;4.30;;;4.60;99.90;;;;;;4955915;29;20181;-68
2023/11/18 03:54:23;;;;;;;4.67;4.20;;;4.60;99.90;;;;;;4951212;29;20216;-68
2023/11/18 03:56:48;;;;;;;5.27;4.57;;;4.60;99.90;;;;;;4955537;29;20306;-68
2023/11/18 03:59:14;;;;;;;5.93;5.07;;;4.60;99.90;;;;;;4952574;28;20272;-68
2023/11/18 04:01:40;;;;;;;6.27;5.67;;;4.60;99.90;;;;;;4955710;28;20843;-68
2023/11/18 04:04:06;;;;;;;4.83;4.40;;;4.50;99.90;;;;;;4955670;28;20501;-68
2023/11/18 04:06:32;;;;;;;5.80;5.30;;;4.50;99.90;;;;;;4953535;28;20437;-68
2023/11/18 04:08:57;;;;;;;4.93;4.53;;;4.50;99.90;;;;;;4954051;29;20525;-68
2023/11/18 04:11:23;;;;;;;4.70;4.27;;;4.50;99.90;;;;;;4955504;29;20181;-68
2023/11/18 04:13:49;;;;;;;5.17;4.67;;;4.50;99.90;;;;;;4953864;28;20208;-68
2023/11/18 04:16:18;;;;;;;4.30;3.90;;;4.50;99.90;;;;;;4955290;29;20442;-68
2023/11/18 04:18:45;;;;;;;3.70;3.40;;;4.50;99.90;;;;;;4954575;28;20181;-68
2023/11/18 04:21:12;;;;;;;4.57;4.17;;;4.50;99.90;;;;;;4955237;28;20464;-68
2023/11/18 04:23:39;;;;;;;4.20;3.90;;;4.50;99.90;;;;;;4952869;28;20467;-68
2023/11/18 04:26:07;;;;;;;4.10;3.80;;;4.50;99.90;;;;;;4953987;28;20830;-68
2023/11/18 04:28:32;;;;;;;4.43;4.03;;;4.50;99.90;;;;;;4944940;29;20445;-68
2023/11/18 04:30:59;;;;;;;3.70;3.40;;;4.50;99.90;;;;;;4951600;29;20451;-68
2023/11/18 04:33:24;;;;;;;4.20;3.80;;;4.50;99.90;;;;;;4954888;28;20475;-68
2023/11/18 04:35:51;;;;;;;5.33;3.50;;;4.50;99.90;;;;;;4952671;29;20453;-68
2023/11/18 04:38:17;;;;;;;4.13;3.60;;;4.50;99.90;;;;;;4953658;29;20189;-68
2023/11/18 04:40:44;;;;;;;3.80;3.50;;;4.50;99.90;;;;;;4948246;28;20487;-68
2023/11/18 04:43:10;;;;;;;5.27;3.57;;;4.60;99.90;;;;;;4953273;29;20664;-68
2023/11/18 04:45:36;;;;;;;3.70;3.40;;;4.60;99.90;;;;;;4954250;28;20428;-68
2023/11/18 04:48:02;;;;;;;3.90;3.40;;;4.60;99.90;;;;;;4953208;28;20522;-68
2023/11/18 04:50:30;;;;;;;3.63;3.33;;;4.60;99.90;;;;;;4952359;28;20287;-68
2023/11/18 04:52:55;;;;;;;4.23;3.83;;;4.70;99.90;;;;;;4954603;28;20873;-68
2023/11/18 04:55:21;;;;;;;4.50;4.10;;;4.70;99.90;;;;;;4947949;28;20523;-68
2023/11/18 04:57:47;;;;;;;3.70;3.40;;;4.70;99.90;;;;;;4954267;28;20191;-68
2023/11/18 05:00:16;;;;;;;5.80;4.07;;;4.70;99.90;;;;;;4954520;28;20581;-68
2023/11/18 05:02:42;;;;;;;3.03;2.83;;;4.80;99.90;;;;;;4953970;28;20227;-68
2023/11/18 05:05:08;;;;;;;3.57;3.27;;;4.80;99.90;;;;;;4947642;28;20441;-68
2023/11/18 05:07:34;;;;;;;4.87;2.87;;;4.80;99.90;;;;;;4954279;28;20417;-68
2023/11/18 05:10:01;;;;;;;3.37;3.07;;;4.70;99.90;;;;;;4946600;28;20446;-68
2023/11/18 05:12:29;;;;;;;3.80;3.50;;;4.70;99.90;;;;;;4948029;28;20211;-68
2023/11/18 05:14:55;;;;;;;3.70;3.23;;;4.60;99.90;;;;;;4953842;28;20868;-68
2023/11/18 05:17:21;;;;;;;2.93;2.63;;;4.60;99.90;;;;;;4946302;29;20447;-68
2023/11/18 05:19:48;;;;;;;5.70;3.73;;;4.60;99.90;;;;;;4954284;28;20555;-68
2023/11/18 05:22:13;;;;;;;3.53;3.20;;;4.60;99.90;;;;;;4952571;28;20450;-68
2023/11/18 05:24:39;;;;;;;3.80;3.50;;;4.60;99.90;;;;;;4954134;29;20435;-68
2023/11/18 05:27:04;;;;;;;3.77;3.47;;;4.60;99.90;;;;;;4953811;29;20258;-68
2023/11/18 05:29:30;;;;;;;4.70;3.57;;;4.60;99.90;;;;;;4953406;29;20192;-68
2023/11/18 05:31:56;;;;;;;4.13;3.27;;;4.70;99.90;;;;;;4949547;29;20280;-68
2023/11/18 05:34:22;;;;;;;4.13;3.83;;;4.70;99.90;;;;;;4946899;29;20554;-68
2023/11/18 05:36:51;;;;;;;3.57;3.27;;;4.70;99.90;;;;;;4953815;29;20208;-68
2023/11/18 05:39:16;;;;;;;3.87;3.57;;;4.70;99.90;;;;;;4946890;28;20231;-68
2023/11/18 05:41:45;;;;;;;3.73;3.43;;;4.70;99.90;;;;;;4953904;29;20464;-68
2023/11/18 05:44:17;;;;;;;4.83;4.30;;;4.70;99.90;;;;;;4953062;28;20200;-68
2023/11/18 05:46:46;;;;;;;5.60;4.20;;;4.70;99.90;;;;;;4952902;28;20811;-68
2023/11/18 05:49:13;;;;;;;4.13;3.43;;;4.70;99.90;;;;;;4953822;28;20788;-68
2023/11/18 05:51:40;;;;;;;5.93;4.10;;;4.70;99.90;;;;;;4944956;28;20605;-68
2023/11/18 05:54:06;;;;;;;5.20;4.07;;;4.70;99.90;;;;;;4943701;29;20465;-68
2023/11/18 05:56:32;;;;;;;4.30;3.90;;;4.70;99.90;;;;;;4953369;28;20957;-68
2023/11/18 05:58:58;;;;;;;5.47;3.90;;;4.60;99.90;;;;;;4947566;29;20610;-68
2023/11/18 06:01:27;;;;;;;5.67;4.83;;;4.60;99.90;;;;;;4948905;29;20568;-68
2023/11/18 06:03:53;;;;;;;4.80;4.30;;;4.60;99.90;;;;;;4953755;28;20197;-68
2023/11/18 06:06:20;;;;;;;5.83;4.30;;;4.50;99.90;;;;;;4952936;28;20435;-68
2023/11/18 06:08:47;;;;;;;9.30;4.93;;;4.50;99.90;;;;;;4959567;28;20860;-68
2023/11/18 06:11:14;;;;;;;5.10;4.60;;;4.50;99.90;;;;;;4951029;29;20441;-68
2023/11/18 06:13:46;;;;;;;4.67;4.27;;;4.50;99.90;;;;;;4949598;28;20472;-68
2023/11/18 06:16:15;;;;;;;5.83;5.33;;;4.40;99.90;;;;;;4946755;29;20467;-68
2023/11/18 06:18:44;;;;;;;5.83;5.10;;;4.40;99.90;;;;;;4949450;28;20933;-68
2023/11/18 06:21:14;;;;;;;5.33;4.37;;;4.30;99.90;;;;;;4946618;29;20469;-68
2023/11/18 06:23:41;;;;;;;4.50;3.97;;;4.20;99.90;;;;;;4957061;28;20456;-68
2023/11/18 06:26:07;;;;;;;6.17;4.83;;;4.20;99.90;;;;;;4956631;28;20449;-68
2023/11/18 06:28:33;;;;;;;5.83;4.50;;;4.10;99.90;;;;;;4956373;28;20439;-68
2023/11/18 06:30:59;;;;;;;7.80;6.30;;;4.10;99.90;;;;;;4953860;28;20193;-68
2023/11/18 06:33:27;;;;;;;8.40;5.93;;;4.10;99.90;;;;;;4957139;28;20567;-68
2023/11/18 06:35:56;;;;;;;7.90;5.60;;;4.10;99.90;;;;;;4951035;28;20453;-68
2023/11/18 06:38:22;;;;;;;8.70;5.93;;;4.10;99.90;;;;;;4956948;29;20439;-68
2023/11/18 06:40:51;;;;;;;6.83;6.13;;;4.10;99.90;;;;;;4956939;29;20891;-68
2023/11/18 06:43:18;;;;;;;7.77;6.97;;;4.10;99.90;;;;;;4957148;28;20448;-68
2023/11/18 06:45:44;;;;;;;7.83;7.03;;;4.10;99.90;;;;;;4950424;28;20445;-68
2023/11/18 06:48:10;;;;;;;9.33;7.70;;;4.20;99.90;;;;;;4955217;29;20423;-68
2023/11/18 06:50:36;;;;;;;8.43;7.53;;;4.20;99.90;;;;;;4956450;28;20181;-68
2023/11/18 06:53:01;;;;;;;9.43;8.43;;;4.20;99.90;;;;;;4956746;29;20462;-70
2023/11/18 06:55:27;;;;;;;9.33;8.13;;;4.20;99.90;;;;;;4956341;29;20184;-68
2023/11/18 06:57:55;;;;;;;9.90;8.90;;;4.20;99.90;;;;;;4969235;28;20200;-68
2023/11/18 07:00:21;;;;;;;10.10;8.37;;;4.20;99.90;;;;;;4948828;29;20291;-68
2023/11/18 07:02:47;;;;;;;14.30;9.00;;;4.20;99.90;;;;;;4952836;28;20518;-68
2023/11/18 07:05:14;;;;;;;10.80;8.43;;;4.30;99.90;;;;;;4956731;28;20420;-68
2023/11/18 07:07:40;;;;;;;11.43;8.10;;;4.30;99.90;;;;;;4956033;28;20633;-68
2023/11/18 07:10:06;;;;;;;8.70;7.57;;;4.40;99.90;;;;;;4956566;28;20428;-68
2023/11/18 07:12:36;;;;;;;11.13;7.80;;;4.40;99.90;;;;;;4955842;28;20440;-68
2023/11/18 07:15:03;;;;;;;12.13;8.53;;;4.50;99.90;;;;;;4953445;29;20479;-68
2023/11/18 07:17:29;;;;;;;13.00;9.80;;;4.70;99.90;;;;;;4952882;28;20450;-68
2023/11/18 07:19:55;;;;;;;22.60;9.10;;;5.00;99.90;;;;;;4955712;29;20464;-68
2023/11/18 07:22:21;;;;;;;9.17;7.40;;;5.30;99.90;;;;;;4953619;28;20680;-68
2023/11/18 07:24:46;;;;;;;8.23;7.40;;;5.70;99.90;;;;;;4956462;29;20424;-68
2023/11/18 07:27:13;;;;;;;8.70;7.70;;;6.10;99.90;;;;;;4953053;28;20249;-68
2023/11/18 07:29:38;;;;;;;10.13;6.47;;;6.50;99.90;;;;;;4956180;28;20165;-68
2023/11/18 07:32:05;;;;;;;6.60;6.10;;;6.70;99.90;;;;;;4956307;29;20421;-68
2023/11/18 07:34:32;;;;;;;9.37;6.97;;;6.90;99.90;;;;;;4963465;23;20683;-71
2023/11/18 07:36:59;;;;;;;9.37;6.50;;;7.00;99.90;;;;;;4954906;28;20449;-70
2023/11/18 07:39:29;;;;;;;6.50;5.93;;;7.30;99.90;;;;;;4935369;29;20465;-71
2023/11/18 07:41:59;;;;;;;7.03;5.63;;;7.60;99.90;;;;;;4930177;29;20473;-71
2023/11/18 07:44:24;;;;;;;6.20;5.60;;;7.50;99.90;;;;;;4936299;29;20457;-71
2023/11/18 07:46:50;;;;;;;5.40;4.90;;;7.40;99.90;;;;;;4936077;29;20947;-71
2023/11/18 07:49:16;;;;;;;6.70;5.53;;;7.40;99.90;;;;;;4935834;29;20221;-71
2023/11/18 07:51:42;;;;;;;6.00;5.40;;;7.40;99.90;;;;;;4936202;29;20177;-71
2023/11/18 07:54:09;;;;;;;8.03;5.93;;;7.30;99.90;;;;;;4936609;29;20449;-71
2023/11/18 07:56:36;;;;;;;5.47;5.07;;;7.40;99.90;;;;;;4931237;29;20670;-71
2023/11/18 07:59:03;;;;;;;6.70;5.73;;;7.30;99.90;;;;;;4933777;29;20449;-70
2023/11/18 08:01:30;;;;;;;6.07;4.90;;;7.10;99.90;;;;;;4936498;29;20540;-71
2023/11/18 08:03:55;;;;;;;8.10;5.80;;;6.80;99.90;;;;;;4936532;29;20466;-71
2023/11/18 08:06:21;;;;;;;6.00;4.90;;;6.80;99.90;;;;;;4935816;29;20432;-71
2023/11/18 08:08:47;;;;;;;5.77;5.10;;;6.90;99.90;;;;;;4935691;29;20549;-70
2023/11/18 08:11:13;;;;;;;5.77;5.27;;;7.10;99.90;;;;;;4935596;29;20182;-71
2023/11/18 08:13:39;;;;;;;5.83;5.33;;;7.10;99.90;;;;;;4935458;29;20972;-71
2023/11/18 08:16:08;;;;;;;7.23;6.03;;;7.20;99.90;;;;;;4935856;29;20445;-71
2023/11/18 08:18:35;;;;;;;7.67;5.70;;;7.20;99.90;;;;;;4935995;29;20865;-71
2023/11/18 08:21:01;;;;;;;5.03;4.53;;;7.20;99.90;;;;;;4934917;29;20479;-71
2023/11/18 08:23:31;;;;;;;4.77;4.37;;;7.30;99.90;;;;;;4935601;29;20889;-71
2023/11/18 08:25:57;;;;;;;5.97;4.03;;;7.30;99.90;;;;;;4936043;29;20436;-71
2023/11/18 08:28:22;;;;;;;6.00;5.50;;;7.20;99.90;;;;;;4950011;29;20528;-71
2023/11/18 08:30:48;;;;;;;5.87;5.33;;;7.10;99.90;;;;;;4931042;29;20182;-71
2023/11/18 08:33:14;;;;;;;6.77;4.70;;;7.00;99.90;;;;;;4935044;29;20734;-71
2023/11/18 08:35:42;;;;;;;9.03;4.20;;;6.90;99.90;;;;;;4936186;29;20433;-71
2023/11/18 08:38:07;;;;;;;5.23;4.70;;;6.70;99.90;;;;;;4935186;29;20188;-70
2023/11/18 08:40:34;;;;;;;4.73;4.30;;;6.70;99.90;;;;;;4934399;29;20472;-71
2023/11/18 08:43:01;;;;;;;3.97;3.67;;;6.80;99.90;;;;;;4935600;29;20209;-71
2023/11/18 08:45:29;;;;;;;4.23;3.87;;;6.80;99.90;;;;;;4935184;29;20472;-71
2023/11/18 08:47:57;;;;;;;7.10;6.40;;;6.80;99.90;;;;;;4935449;29;20425;-70
2023/11/18 08:50:24;;;;;;;4.20;3.80;;;6.80;99.90;;;;;;4935124;29;20449;-71
2023/11/18 08:52:57;;;;;;;6.33;4.50;;;6.90;99.90;;;;;;4934919;29;20463;-71
2023/11/18 08:55:38;;;;;;;4.53;4.13;;;6.90;99.90;;;;;;4928006;29;20925;-71
2023/11/18 08:58:15;;;;;;;3.87;3.57;;;7.10;99.90;;;;;;4935433;29;20869;-71
2023/11/18 09:00:47;;;;;;;5.03;3.43;;;7.30;99.90;;;;;;4934441;29;20469;-70
2023/11/18 09:03:24;;;;;;;3.70;3.50;;;7.40;99.90;;;;;;4934798;29;20461;-71
2023/11/18 09:05:56;;;;;;;3.50;3.20;;;7.50;99.90;;;;;;4934862;29;20449;-71
2023/11/18 09:08:32;;;;;;;3.77;3.40;;;7.60;99.90;;;;;;4926326;29;20496;-71
2023/11/18 09:10:58;;;;;;;4.10;3.33;;;7.80;99.90;;;;;;4916500;29;20433;-71
2023/11/18 09:13:28;;;;;;;2.73;2.13;;;8.20;99.90;;;;;;4931948;29;20457;-71
2023/11/18 09:16:00;;;;;;;4.50;2.87;;;8.60;99.90;;;;;;4933055;29;20528;-71
2023/11/18 09:18:27;;;;;;;3.60;2.67;;;8.70;99.90;;;;;;4927199;29;20444;-71
2023/11/18 09:20:59;;;;;;;4.00;2.80;;;8.70;99.90;;;;;;4934516;29;20471;-72
2023/11/18 09:23:25;;;;;;;5.10;2.47;;;8.60;99.90;;;;;;4929551;29;20471;-71
2023/11/18 09:25:53;;;;;;;2.23;2.13;;;8.70;99.90;;;;;;4934966;29;20544;-71
2023/11/18 09:28:24;;;;;;;2.70;2.50;;;8.80;99.90;;;;;;4934259;29;20513;-71
2023/11/18 09:30:49;;;;;;;3.80;3.37;;;8.70;99.90;;;;;;4935175;29;20924;-71
2023/11/18 09:33:25;;;;;;;2.90;2.70;;;8.50;99.90;;;;;;4933522;29;20473;-71
2023/11/18 09:35:59;;;;;;;2.67;2.43;;;8.40;99.90;;;;;;4934459;29;20212;-71
2023/11/18 09:38:35;;;;;;;3.00;2.80;;;8.50;99.90;;;;;;4927551;29;20428;-71
2023/11/18 09:41:02;;;;;;;3.40;2.57;;;8.30;99.90;;;;;;4934650;29;20549;-70
2023/11/18 09:43:32;;;;;;;3.73;2.40;;;8.40;99.90;;;;;;4930734;29;20477;-71
2023/11/18 09:46:12;;;;;;;2.30;2.07;;;8.50;99.90;;;;;;4934247;29;20441;-71
2023/11/18 09:48:49;;;;;;;2.63;2.43;;;8.30;99.90;;;;;;4934457;29;20427;-71
2023/11/18 09:51:23;;;;;;;2.40;2.13;;;8.30;99.90;;;;;;4933536;29;20453;-71
2023/11/18 09:53:53;;;;;;;2.70;2.13;;;8.30;99.90;;;;;;4934750;29;20449;-71
2023/11/18 09:56:38;;;;;;;3.27;1.77;;;8.30;99.90;;;;;;4934372;29;20806;-71
2023/11/18 09:59:30;;;;;;;2.53;2.30;;;8.40;99.90;;;;;;4934194;29;20508;-71
2023/11/18 10:01:57;;;;;;;2.83;2.20;;;8.80;99.90;;;;;;4934576;29;20459;-71
2023/11/18 10:04:27;;;;;;;2.20;2.00;;;9.00;99.90;;;;;;4932275;29;20457;-71
2023/11/18 10:06:54;;;;;;;3.73;3.43;;;9.00;99.90;;;;;;4934361;29;20509;-71
2023/11/18 10:09:28;;;;;;;3.30;2.17;;;9.10;99.90;;;;;;4934464;29;20500;-71
2023/11/18 10:12:00;;;;;;;2.23;1.60;;;9.20;99.90;;;;;;4933485;29;20441;-71
2023/11/18 10:14:26;;;;;;;1.73;1.63;;;9.30;99.90;;;;;;4933417;29;20515;-71
2023/11/18 10:16:53;;;;;;;2.70;1.90;;;9.50;99.90;;;;;;4936909;29;20832;-71
2023/11/18 10:19:19;;;;;;;3.03;2.20;;;9.80;99.90;;;;;;4933938;29;20681;-71
2023/11/18 10:21:48;;;;;;;2.00;1.80;;;9.50;99.90;;;;;;4934169;29;20461;-71
2023/11/18 10:24:14;;;;;;;2.10;1.90;;;9.40;99.90;;;;;;4933802;29;20583;-71
2023/11/18 10:26:42;;;;;;;1.77;1.67;;;9.20;99.90;;;;;;4932810;29;20456;-71
2023/11/18 10:29:09;;;;;;;1.80;1.63;;;9.20;99.90;;;;;;4934425;29;20205;-71
2023/11/18 10:31:37;;;;;;;2.43;2.20;;;9.20;99.90;;;;;;4932277;29;20452;-71
2023/11/18 10:34:03;;;;;;;3.03;2.77;;;9.20;99.90;;;;;;4922441;29;20485;-71
2023/11/18 10:36:33;;;;;;;2.87;2.20;;;9.10;99.90;;;;;;4934068;29;20453;-71
2023/11/18 10:39:01;;;;;;;2.30;2.10;;;9.00;99.90;;;;;;4933139;29;20449;-71
2023/11/18 10:41:26;;;;;;;2.10;1.43;;;8.80;99.90;;;;;;4933548;29;20456;-72
2023/11/18 10:44:13;;;;;;;2.20;1.70;;;8.80;99.90;;;;;;4934193;29;20972;-71
2023/11/18 10:46:40;;;;;;;4.23;2.10;;;8.90;99.90;;;;;;4931476;29;20181;-71
2023/11/18 10:49:09;;;;;;;1.90;1.73;;;9.00;99.90;;;;;;4933536;29;20459;-71
2023/11/18 10:51:38;;;;;;;3.67;1.87;;;9.00;99.90;;;;;;4933773;29;20472;-71
2023/11/18 10:54:13;;;;;;;2.40;1.90;;;9.20;99.90;;;;;;4933962;29;21983;-71
2023/11/18 10:56:46;;;;;;;1.83;1.73;;;9.50;99.90;;;;;;4933367;29;20449;-72
2023/11/18 10:59:16;;;;;;;2.63;2.13;;;9.70;99.90;;;;;;4934234;29;20425;-71
2023/11/18 11:01:42;;;;;;;3.30;1.83;;;9.60;99.90;;;;;;4934092;29;20457;-71
2023/11/18 11:04:10;;;;;;;1.77;1.67;;;9.70;99.90;;;;;;4933455;29;20816;-71
2023/11/18 11:06:41;;;;;;;2.57;1.63;;;9.50;99.90;;;;;;4932669;29;20504;-71
2023/11/18 11:09:09;;;;;;;2.63;1.50;;;9.50;99.90;;;;;;4936183;29;20460;-71
2023/11/18 11:11:49;;;;;;;3.20;1.87;;;9.50;99.90;;;;;;4937683;29;20424;-72
2023/11/18 11:14:17;;;;;;;1.90;1.70;;;9.50;99.90;;;;;;4935588;29;20471;-72
2023/11/18 11:16:50;;;;;;;1.60;1.50;;;9.40;99.90;;;;;;4935300;29;20799;-72
2023/11/18 11:19:33;;;;;;;1.60;1.50;;;9.30;99.90;;;;;;4936811;29;20999;-72
2023/11/18 11:22:15;;;;;;;3.33;1.80;;;9.60;99.90;;;;;;4937295;29;20471;-71
2023/11/18 11:24:59;;;;;;;4.50;2.07;;;9.70;99.90;;;;;;4935985;29;20508;-72
2023/11/18 11:27:49;;;;;;;3.00;2.10;;;9.70;99.90;;;;;;4935888;29;20435;-71
2023/11/18 11:30:28;;;;;;;3.20;1.80;;;9.80;99.90;;;;;;4936779;29;20444;-72
2023/11/18 11:33:22;;;;;;;2.97;2.10;;;9.60;99.90;;;;;;4936411;29;20560;-71
2023/11/18 11:35:57;;;;;;;1.63;1.53;;;9.50;99.90;;;;;;4931873;29;20977;-71
2023/11/18 11:38:24;;;;;;;1.87;1.57;;;9.40;99.90;;;;;;4936065;29;20437;-71
2023/11/18 11:40:52;;;;;;;1.53;1.43;;;9.30;99.90;;;;;;4927384;29;20461;-72
2023/11/18 11:43:21;;;;;;;4.93;1.83;;;9.10;99.90;;;;;;4936641;29;20972;-71
2023/11/18 11:45:55;;;;;;;2.20;1.20;;;9.00;99.90;;;;;;4937013;29;20425;-71
2023/11/18 11:48:27;;;;;;;2.53;1.33;;;9.00;99.90;;;;;;4934786;29;21170;-72
2023/11/18 11:51:16;;;;;;;1.40;1.30;;;9.00;99.90;;;;;;4936828;29;20433;-71
2023/11/18 11:54:15;;;;;;;2.37;1.40;;;8.90;99.90;;;;;;4921642;29;20449;-71
2023/11/18 11:56:46;;;;;;;3.77;1.53;;;8.80;99.90;;;;;;4923015;29;20437;-71
2023/11/18 11:59:15;;;;;;;1.47;1.37;;;8.60;99.90;;;;;;4935565;29;20441;-71
2023/11/18 12:01:46;;;;;;;4.10;1.40;;;8.60;99.90;;;;;;4936465;29;20453;-71
2023/11/18 12:04:22;;;;;;;4.00;1.43;;;8.70;99.90;;;;;;4936042;29;20469;-71
2023/11/18 12:06:53;;;;;;;1.50;1.40;;;8.70;99.90;;;;;;4935314;29;20441;-71
2023/11/18 12:09:21;;;;;;;5.90;2.30;;;8.80;99.90;;;;;;4936646;29;20919;-71
2023/11/18 12:11:50;;;;;;;1.70;1.60;;;8.70;99.90;;;;;;4949749;29;20508;-70
2023/11/18 12:14:41;;;;;;;2.30;1.83;;;8.60;99.90;;;;;;4935699;29;20480;-70
2023/11/18 12:17:09;;;;;;;2.90;1.60;;;8.70;99.90;;;;;;4935649;29;20437;-70
2023/11/18 12:19:48;;;;;;;2.90;1.87;;;8.70;99.90;;;;;;4934132;29;20442;-71
2023/11/18 12:22:18;;;;;;;3.03;1.70;;;8.70;99.90;;;;;;4936198;29;20437;-71
2023/11/18 12:24:47;;;;;;;3.43;2.37;;;8.60;99.90;;;;;;4936028;29;20477;-71
2023/11/18 12:27:13;;;;;;;2.20;1.77;;;8.50;99.90;;;;;;4935385;29;20441;-71
2023/11/18 12:29:44;;;;;;;2.60;1.93;;;8.50;99.90;;;;;;4934507;29;20429;-71
2023/11/18 12:32:12;;;;;;;2.90;1.90;;;8.50;99.90;;;;;;4935397;29;20441;-70
2023/11/18 12:34:53;;;;;;;3.63;2.07;;;8.40;99.90;;;;;;4935279;29;20561;-71
2023/11/18 12:37:38;;;;;;;3.23;1.80;;;8.40;99.90;;;;;;4934248;29;20528;-71
2023/11/18 12:40:24;;;;;;;5.87;1.77;;;8.40;99.90;;;;;;4935294;29;20457;-71
2023/11/18 12:43:04;;;;;;;2.10;1.70;;;8.50;99.90;;;;;;4935856;29;20453;-71
2023/11/18 12:46:14;;;;;;;2.83;1.83;;;8.50;99.90;;;;;;4935350;29;20428;-70
2023/11/18 12:48:43;;;;;;;3.70;1.67;;;8.50;99.90;;;;;;4929856;29;20492;-71
2023/11/18 12:51:19;;;;;;;3.10;1.63;;;8.50;99.90;;;;;;4935117;29;20516;-71
2023/11/18 12:53:49;;;;;;;2.17;1.87;;;8.50;99.90;;;;;;4934770;29;20475;-71
2023/11/18 12:56:23;;;;;;;2.37;1.60;;;8.40;99.90;;;;;;4935040;29;20441;-71
2023/11/18 12:58:48;;;;;;;2.20;1.87;;;8.40;99.90;;;;;;4935426;29;20430;-71
2023/11/18 13:01:15;;;;;;;3.17;2.40;;;8.40;99.90;;;;;;4934506;29;20492;-71
2023/11/18 13:03:45;;;;;;;3.67;2.80;;;8.50;99.90;;;;;;4934257;29;20193;-71
2023/11/18 13:06:14;;;;;;;5.80;2.10;;;8.40;99.90;;;;;;4935454;29;20432;-70